sensor_id;sensor_type;location;lat;lon;timestamp;temperature;humidity
7654;DHT22;3869;48.406;10.774;2022-07-22T00:01:45;19.50;99.90
7654;DHT22;3869;48.406;10.774;2022-07-22T00:04:13;19.40;99.90
7654;DHT22;3869;48.406;10.774;2022-07-22T00:06:41;19.40;99.90
7654;DHT22;3869;48.406;10.774;2022-07-22T00:09:08;19.50;99.90
7654;DHT22;3869;48.406;10.774;2022-07-22T00:11:36;19.40;99.90
7654;DHT22;3869;48.406;10.774;2022-07-22T00:14:04;19.40;99.90
7654;DHT22;3869;48.406;10.774;2022-07-22T00:16:34;19.30;99.90
7654;DHT22;3869;48.406;10.774;2022-07-22T00:19:02;19.20;99.90
7654;DHT22;3869;48.406;10.774;2022-07-22T00:21:30;19.20;99.90
7654;DHT22;3869;48.406;10.774;2022-07-22T00:23:58;19.20;99.90
7654;DHT22;3869;48.406;10.774;2022-07-22T00:26:26;19.20;99.90
7654;DHT22;3869;48.406;10.774;2022-07-22T00:28:54;19.20;99.90
7654;DHT22;3869;48.406;10.774;2022-07-22T00:31:22;19.20;99.90
7654;DHT22;3869;48.406;10.774;2022-07-22T00:33:52;19.20;99.90
7654;DHT22;3869;48.406;10.774;2022-07-22T00:36:20;19.10;99.90
7654;DHT22;3869;48.406;10.774;2022-07-22T00:38:48;19.10;99.90
7654;DHT22;3869;48.406;10.774;2022-07-22T00:41:16;19.10;99.90
7654;DHT22;3869;48.406;10.774;2022-07-22T00:43:52;19.00;99.90
7654;DHT22;3869;48.406;10.774;2022-07-22T00:46:22;19.00;99.90
7654;DHT22;3869;48.406;10.774;2022-07-22T00:48:52;18.90;99.90
7654;DHT22;3869;48.406;10.774;2022-07-22T00:51:21;18.80;99.90
7654;DHT22;3869;48.406;10.774;2022-07-22T00:53:50;18.80;99.90
7654;DHT22;3869;48.406;10.774;2022-07-22T00:56:18;18.80;99.90
7654;DHT22;3869;48.406;10.774;2022-07-22T00:58:49;18.80;99.90
7654;DHT22;3869;48.406;10.774;2022-07-22T01:01:17;18.80;99.90
7654;DHT22;3869;48.406;10.774;2022-07-22T01:03:46;18.80;99.90
7654;DHT22;3869;48.406;10.774;2022-07-22T01:06:17;18.80;99.90
7654;DHT22;3869;48.406;10.774;2022-07-22T01:08:45;18.80;99.90
7654;DHT22;3869;48.406;10.774;2022-07-22T01:11:15;18.80;99.90
7654;DHT22;3869;48.406;10.774;2022-07-22T01:13:44;18.70;99.90
7654;DHT22;3869;48.406;10.774;2022-07-22T01:16:14;18.70;99.90
7654;DHT22;3869;48.406;10.774;2022-07-22T01:18:43;18.70;99.90
7654;DHT22;3869;48.406;10.774;2022-07-22T01:21:14;18.70;99.90
7654;DHT22;3869;48.406;10.774;2022-07-22T01:23:43;18.70;99.90
7654;DHT22;3869;48.406;10.774;2022-07-22T01:26:11;18.60;99.90
7654;DHT22;3869;48.406;10.774;2022-07-22T01:28:40;18.60;99.90
7654;DHT22;3869;48.406;10.774;2022-07-22T01:31:09;18.60;99.90
7654;DHT22;3869;48.406;10.774;2022-07-22T01:33:37;18.60;99.90
7654;DHT22;3869;48.406;10.774;2022-07-22T01:36:06;18.50;99.90
7654;DHT22;3869;48.406;10.774;2022-07-22T01:38:36;18.50;99.90
7654;DHT22;3869;48.406;10.774;2022-07-22T01:41:04;18.50;99.90
7654;DHT22;3869;48.406;10.774;2022-07-22T01:43:32;18.50;99.90
7654;DHT22;3869;48.406;10.774;2022-07-22T01:46:01;18.50;99.90
7654;DHT22;3869;48.406;10.774;2022-07-22T01:48:29;18.50;99.90
7654;DHT22;3869;48.406;10.774;2022-07-22T01:50:57;18.50;99.90
7654;DHT22;3869;48.406;10.774;2022-07-22T01:53:25;18.50;99.90
7654;DHT22;3869;48.406;10.774;2022-07-22T01:55:55;18.40;99.90
7654;DHT22;3869;48.406;10.774;2022-07-22T01:58:23;18.40;99.90
7654;DHT22;3869;48.406;10.774;2022-07-22T02:00:51;18.50;99.90
7654;DHT22;3869;48.406;10.774;2022-07-22T02:03:19;18.40;99.90
7654;DHT22;3869;48.406;10.774;2022-07-22T02:05:47;18.40;99.90
7654;DHT22;3869;48.406;10.774;2022-07-22T02:08:16;18.40;99.90
7654;DHT22;3869;48.406;10.774;2022-07-22T02:10:44;18.40;99.90
7654;DHT22;3869;48.406;10.774;2022-07-22T02:13:14;18.30;99.90
7654;DHT22;3869;48.406;10.774;2022-07-22T02:15:42;18.30;99.90
7654;DHT22;3869;48.406;10.774;2022-07-22T02:18:11;18.30;99.90
7654;DHT22;3869;48.406;10.774;2022-07-22T02:20:39;18.30;99.90
7654;DHT22;3869;48.406;10.774;2022-07-22T02:23:08;18.30;99.90
7654;DHT22;3869;48.406;10.774;2022-07-22T02:25:38;18.30;99.90
7654;DHT22;3869;48.406;10.774;2022-07-22T02:28:06;18.20;99.90
7654;DHT22;3869;48.406;10.774;2022-07-22T02:30:36;18.20;99.90
7654;DHT22;3869;48.406;10.774;2022-07-22T02:33:05;18.20;99.90
7654;DHT22;3869;48.406;10.774;2022-07-22T02:35:34;18.20;99.90
7654;DHT22;3869;48.406;10.774;2022-07-22T02:38:03;18.10;99.90
7654;DHT22;3869;48.406;10.774;2022-07-22T02:40:31;18.10;99.90
7654;DHT22;3869;48.406;10.774;2022-07-22T02:42:59;18.20;99.90
7654;DHT22;3869;48.406;10.774;2022-07-22T02:45:27;18.20;99.90
7654;DHT22;3869;48.406;10.774;2022-07-22T02:47:56;18.10;99.90
7654;DHT22;3869;48.406;10.774;2022-07-22T02:50:25;18.10;99.90
7654;DHT22;3869;48.406;10.774;2022-07-22T02:52:53;18.10;99.90
7654;DHT22;3869;48.406;10.774;2022-07-22T02:55:21;18.10;99.90
7654;DHT22;3869;48.406;10.774;2022-07-22T02:57:49;18.00;99.90
7654;DHT22;3869;48.406;10.774;2022-07-22T03:00:17;17.90;99.90
7654;DHT22;3869;48.406;10.774;2022-07-22T03:02:47;17.90;99.90
7654;DHT22;3869;48.406;10.774;2022-07-22T03:05:16;17.80;99.90
7654;DHT22;3869;48.406;10.774;2022-07-22T03:07:44;17.90;99.90
7654;DHT22;3869;48.406;10.774;2022-07-22T03:10:12;17.90;99.90
7654;DHT22;3869;48.406;10.774;2022-07-22T03:12:40;17.90;99.90
7654;DHT22;3869;48.406;10.774;2022-07-22T03:15:08;17.90;99.90
7654;DHT22;3869;48.406;10.774;2022-07-22T03:17:37;17.90;99.90
7654;DHT22;3869;48.406;10.774;2022-07-22T03:20:07;17.90;99.90
7654;DHT22;3869;48.406;10.774;2022-07-22T03:22:37;17.90;99.90
7654;DHT22;3869;48.406;10.774;2022-07-22T03:25:05;17.80;99.90
7654;DHT22;3869;48.406;10.774;2022-07-22T03:27:34;17.80;99.90
7654;DHT22;3869;48.406;10.774;2022-07-22T03:30:02;17.80;99.90
7654;DHT22;3869;48.406;10.774;2022-07-22T03:32:30;17.80;99.90
7654;DHT22;3869;48.406;10.774;2022-07-22T03:34:58;17.80;99.90
7654;DHT22;3869;48.406;10.774;2022-07-22T03:37:30;17.80;99.90
7654;DHT22;3869;48.406;10.774;2022-07-22T03:39:59;17.80;99.90
7654;DHT22;3869;48.406;10.774;2022-07-22T03:42:27;17.80;99.90
7654;DHT22;3869;48.406;10.774;2022-07-22T03:44:55;17.80;99.90
7654;DHT22;3869;48.406;10.774;2022-07-22T03:47:23;17.80;99.90
7654;DHT22;3869;48.406;10.774;2022-07-22T03:49:52;17.80;99.90
7654;DHT22;3869;48.406;10.774;2022-07-22T03:52:20;17.70;99.90
7654;DHT22;3869;48.406;10.774;2022-07-22T03:54:48;17.70;99.90
7654;DHT22;3869;48.406;10.774;2022-07-22T03:57:17;17.70;99.90
7654;DHT22;3869;48.406;10.774;2022-07-22T03:59:46;17.70;99.90
7654;DHT22;3869;48.406;10.774;2022-07-22T04:02:14;17.70;99.90
7654;DHT22;3869;48.406;10.774;2022-07-22T04:04:42;17.70;99.90
7654;DHT22;3869;48.406;10.774;2022-07-22T04:07:10;17.70;99.90
7654;DHT22;3869;48.406;10.774;2022-07-22T04:09:38;17.70;99.90
7654;DHT22;3869;48.406;10.774;2022-07-22T04:12:07;17.60;99.90
7654;DHT22;3869;48.406;10.774;2022-07-22T04:14:36;17.60;99.90
7654;DHT22;3869;48.406;10.774;2022-07-22T04:17:04;17.60;99.90
7654;DHT22;3869;48.406;10.774;2022-07-22T04:19:37;17.60;99.90
7654;DHT22;3869;48.406;10.774;2022-07-22T04:22:05;17.60;99.90
7654;DHT22;3869;48.406;10.774;2022-07-22T04:24:33;17.60;99.90
7654;DHT22;3869;48.406;10.774;2022-07-22T04:27:01;17.60;99.90
7654;DHT22;3869;48.406;10.774;2022-07-22T04:29:29;17.60;99.90
7654;DHT22;3869;48.406;10.774;2022-07-22T04:31:59;17.60;99.90
7654;DHT22;3869;48.406;10.774;2022-07-22T04:34:29;17.60;99.90
7654;DHT22;3869;48.406;10.774;2022-07-22T04:36:57;17.60;99.90
7654;DHT22;3869;48.406;10.774;2022-07-22T04:39:25;17.60;99.90
7654;DHT22;3869;48.406;10.774;2022-07-22T04:41:53;17.60;99.90
7654;DHT22;3869;48.406;10.774;2022-07-22T04:44:21;17.60;99.90
7654;DHT22;3869;48.406;10.774;2022-07-22T04:46:49;17.60;99.90
7654;DHT22;3869;48.406;10.774;2022-07-22T04:49:18;17.70;99.90
7654;DHT22;3869;48.406;10.774;2022-07-22T04:51:46;17.70;99.90
7654;DHT22;3869;48.406;10.774;2022-07-22T04:54:14;17.70;99.90
7654;DHT22;3869;48.406;10.774;2022-07-22T04:56:42;17.60;99.90
7654;DHT22;3869;48.406;10.774;2022-07-22T04:59:10;17.60;99.90
7654;DHT22;3869;48.406;10.774;2022-07-22T05:01:38;17.70;99.90
7654;DHT22;3869;48.406;10.774;2022-07-22T05:04:06;17.70;99.90
7654;DHT22;3869;48.406;10.774;2022-07-22T05:06:35;17.80;99.90
7654;DHT22;3869;48.406;10.774;2022-07-22T05:09:03;17.80;99.90
7654;DHT22;3869;48.406;10.774;2022-07-22T05:11:32;17.90;99.90
7654;DHT22;3869;48.406;10.774;2022-07-22T05:14:00;17.90;99.90
7654;DHT22;3869;48.406;10.774;2022-07-22T05:16:28;18.00;99.90
7654;DHT22;3869;48.406;10.774;2022-07-22T05:18:56;18.10;99.90
7654;DHT22;3869;48.406;10.774;2022-07-22T05:21:25;18.30;99.90
7654;DHT22;3869;48.406;10.774;2022-07-22T05:23:54;18.30;99.90
7654;DHT22;3869;48.406;10.774;2022-07-22T05:26:22;18.40;99.90
7654;DHT22;3869;48.406;10.774;2022-07-22T05:28:52;18.40;99.90
7654;DHT22;3869;48.406;10.774;2022-07-22T05:31:21;18.50;99.90
7654;DHT22;3869;48.406;10.774;2022-07-22T05:33:49;18.70;99.90
7654;DHT22;3869;48.406;10.774;2022-07-22T05:36:18;18.80;99.90
7654;DHT22;3869;48.406;10.774;2022-07-22T05:38:46;18.90;99.90
7654;DHT22;3869;48.406;10.774;2022-07-22T05:41:16;19.00;99.90
7654;DHT22;3869;48.406;10.774;2022-07-22T05:43:44;19.00;99.90
7654;DHT22;3869;48.406;10.774;2022-07-22T05:46:12;19.10;99.90
7654;DHT22;3869;48.406;10.774;2022-07-22T05:48:40;19.20;99.90
7654;DHT22;3869;48.406;10.774;2022-07-22T05:51:12;19.30;99.90
7654;DHT22;3869;48.406;10.774;2022-07-22T05:53:42;19.30;99.90
7654;DHT22;3869;48.406;10.774;2022-07-22T05:56:10;19.40;99.90
7654;DHT22;3869;48.406;10.774;2022-07-22T05:58:40;19.50;99.90
7654;DHT22;3869;48.406;10.774;2022-07-22T06:01:09;19.50;99.90
7654;DHT22;3869;48.406;10.774;2022-07-22T06:03:37;19.60;99.90
7654;DHT22;3869;48.406;10.774;2022-07-22T06:06:05;19.70;99.90
7654;DHT22;3869;48.406;10.774;2022-07-22T06:08:36;19.80;99.90
7654;DHT22;3869;48.406;10.774;2022-07-22T06:11:04;19.80;99.90
7654;DHT22;3869;48.406;10.774;2022-07-22T06:13:32;19.90;99.90
7654;DHT22;3869;48.406;10.774;2022-07-22T06:16:02;20.00;99.90
7654;DHT22;3869;48.406;10.774;2022-07-22T06:18:30;20.10;99.90
7654;DHT22;3869;48.406;10.774;2022-07-22T06:20:58;20.20;99.90
7654;DHT22;3869;48.406;10.774;2022-07-22T06:23:26;20.20;99.90
7654;DHT22;3869;48.406;10.774;2022-07-22T06:25:54;20.40;99.90
7654;DHT22;3869;48.406;10.774;2022-07-22T06:28:22;20.50;99.90
7654;DHT22;3869;48.406;10.774;2022-07-22T06:30:50;20.60;99.90
7654;DHT22;3869;48.406;10.774;2022-07-22T06:33:19;20.60;99.90
7654;DHT22;3869;48.406;10.774;2022-07-22T06:35:47;20.70;99.90
7654;DHT22;3869;48.406;10.774;2022-07-22T06:38:15;20.80;99.90
7654;DHT22;3869;48.406;10.774;2022-07-22T06:41:03;20.90;99.90
7654;DHT22;3869;48.406;10.774;2022-07-22T06:43:32;21.00;99.90
7654;DHT22;3869;48.406;10.774;2022-07-22T06:46:00;21.10;99.90
7654;DHT22;3869;48.406;10.774;2022-07-22T06:48:29;21.20;99.90
7654;DHT22;3869;48.406;10.774;2022-07-22T06:50:57;21.30;99.90
7654;DHT22;3869;48.406;10.774;2022-07-22T06:53:25;21.40;99.90
7654;DHT22;3869;48.406;10.774;2022-07-22T06:55:53;21.50;99.90
7654;DHT22;3869;48.406;10.774;2022-07-22T06:58:21;21.60;99.90
7654;DHT22;3869;48.406;10.774;2022-07-22T07:00:49;21.70;99.90
7654;DHT22;3869;48.406;10.774;2022-07-22T07:03:17;21.80;99.90
7654;DHT22;3869;48.406;10.774;2022-07-22T07:06:06;21.90;99.90
7654;DHT22;3869;48.406;10.774;2022-07-22T07:08:34;22.00;99.90
7654;DHT22;3869;48.406;10.774;2022-07-22T07:11:06;22.00;99.90
7654;DHT22;3869;48.406;10.774;2022-07-22T07:13:34;22.10;99.90
7654;DHT22;3869;48.406;10.774;2022-07-22T07:16:03;22.20;99.90
7654;DHT22;3869;48.406;10.774;2022-07-22T07:18:31;22.20;99.90
7654;DHT22;3869;48.406;10.774;2022-07-22T07:20:59;22.30;99.90
7654;DHT22;3869;48.406;10.774;2022-07-22T07:23:28;22.30;99.90
7654;DHT22;3869;48.406;10.774;2022-07-22T07:25:56;22.40;99.90
7654;DHT22;3869;48.406;10.774;2022-07-22T07:28:25;22.50;99.90
7654;DHT22;3869;48.406;10.774;2022-07-22T07:30:53;22.50;99.90
7654;DHT22;3869;48.406;10.774;2022-07-22T07:33:21;22.60;99.90
7654;DHT22;3869;48.406;10.774;2022-07-22T07:35:49;22.60;99.90
7654;DHT22;3869;48.406;10.774;2022-07-22T07:38:17;22.70;99.90
7654;DHT22;3869;48.406;10.774;2022-07-22T07:40:48;22.80;99.90
7654;DHT22;3869;48.406;10.774;2022-07-22T07:43:16;22.80;99.90
7654;DHT22;3869;48.406;10.774;2022-07-22T07:45:44;22.90;99.90
7654;DHT22;3869;48.406;10.774;2022-07-22T07:48:12;22.90;99.90
7654;DHT22;3869;48.406;10.774;2022-07-22T07:50:40;22.90;99.90
7654;DHT22;3869;48.406;10.774;2022-07-22T07:53:08;23.00;99.90
7654;DHT22;3869;48.406;10.774;2022-07-22T07:55:36;23.00;99.90
7654;DHT22;3869;48.406;10.774;2022-07-22T07:58:07;23.00;99.90
7654;DHT22;3869;48.406;10.774;2022-07-22T08:00:36;23.10;99.90
7654;DHT22;3869;48.406;10.774;2022-07-22T08:03:05;23.20;99.90
7654;DHT22;3869;48.406;10.774;2022-07-22T08:05:34;23.30;99.90
7654;DHT22;3869;48.406;10.774;2022-07-22T08:08:04;23.30;99.90
7654;DHT22;3869;48.406;10.774;2022-07-22T08:10:41;23.40;99.90
7654;DHT22;3869;48.406;10.774;2022-07-22T08:13:26;23.50;99.90
7654;DHT22;3869;48.406;10.774;2022-07-22T08:15:54;23.50;99.90
7654;DHT22;3869;48.406;10.774;2022-07-22T08:18:24;23.60;99.90
7654;DHT22;3869;48.406;10.774;2022-07-22T08:20:52;23.70;99.90
7654;DHT22;3869;48.406;10.774;2022-07-22T08:23:20;23.70;99.90
7654;DHT22;3869;48.406;10.774;2022-07-22T08:25:48;23.80;99.90
7654;DHT22;3869;48.406;10.774;2022-07-22T08:28:16;23.90;99.90
7654;DHT22;3869;48.406;10.774;2022-07-22T08:30:46;23.90;99.90
7654;DHT22;3869;48.406;10.774;2022-07-22T08:33:14;23.90;99.90
7654;DHT22;3869;48.406;10.774;2022-07-22T08:35:42;24.00;99.90
7654;DHT22;3869;48.406;10.774;2022-07-22T08:38:10;24.10;99.90
7654;DHT22;3869;48.406;10.774;2022-07-22T08:40:38;24.20;99.90
7654;DHT22;3869;48.406;10.774;2022-07-22T08:43:06;24.30;99.90
7654;DHT22;3869;48.406;10.774;2022-07-22T08:45:34;24.30;99.90
7654;DHT22;3869;48.406;10.774;2022-07-22T08:48:04;24.30;99.90
7654;DHT22;3869;48.406;10.774;2022-07-22T08:50:33;24.40;99.90
7654;DHT22;3869;48.406;10.774;2022-07-22T08:53:02;24.40;99.90
7654;DHT22;3869;48.406;10.774;2022-07-22T08:55:31;24.50;99.90
7654;DHT22;3869;48.406;10.774;2022-07-22T08:57:59;24.60;99.90
7654;DHT22;3869;48.406;10.774;2022-07-22T09:00:27;24.60;99.90
7654;DHT22;3869;48.406;10.774;2022-07-22T09:02:55;24.70;99.90
7654;DHT22;3869;48.406;10.774;2022-07-22T09:05:32;24.80;99.90
7654;DHT22;3869;48.406;10.774;2022-07-22T09:08:11;24.80;99.90
7654;DHT22;3869;48.406;10.774;2022-07-22T09:10:40;24.90;99.90
7654;DHT22;3869;48.406;10.774;2022-07-22T09:13:10;24.90;99.50
7654;DHT22;3869;48.406;10.774;2022-07-22T09:15:40;24.90;99.70
7654;DHT22;3869;48.406;10.774;2022-07-22T09:18:13;25.00;99.90
7654;DHT22;3869;48.406;10.774;2022-07-22T09:20:42;25.00;99.30
7654;DHT22;3869;48.406;10.774;2022-07-22T09:23:12;25.00;99.30
7654;DHT22;3869;48.406;10.774;2022-07-22T09:25:41;25.10;99.70
7654;DHT22;3869;48.406;10.774;2022-07-22T09:28:11;25.30;99.90
7654;DHT22;3869;48.406;10.774;2022-07-22T09:30:46;25.30;99.30
7654;DHT22;3869;48.406;10.774;2022-07-22T09:33:16;25.40;99.00
7654;DHT22;3869;48.406;10.774;2022-07-22T09:35:46;25.40;98.30
7654;DHT22;3869;48.406;10.774;2022-07-22T09:38:18;25.50;98.00
7654;DHT22;3869;48.406;10.774;2022-07-22T09:40:47;25.50;98.60
7654;DHT22;3869;48.406;10.774;2022-07-22T09:43:17;25.60;98.60
7654;DHT22;3869;48.406;10.774;2022-07-22T09:45:48;25.70;98.80
7654;DHT22;3869;48.406;10.774;2022-07-22T09:48:18;25.80;99.10
7654;DHT22;3869;48.406;10.774;2022-07-22T09:50:49;25.80;98.40
7654;DHT22;3869;48.406;10.774;2022-07-22T09:53:19;25.90;98.60
7654;DHT22;3869;48.406;10.774;2022-07-22T09:55:47;25.90;97.60
7654;DHT22;3869;48.406;10.774;2022-07-22T09:58:16;25.90;97.80
7654;DHT22;3869;48.406;10.774;2022-07-22T10:00:44;26.00;97.30
7654;DHT22;3869;48.406;10.774;2022-07-22T10:03:16;26.00;97.20
7654;DHT22;3869;48.406;10.774;2022-07-22T10:05:47;26.10;96.90
7654;DHT22;3869;48.406;10.774;2022-07-22T10:08:15;26.20;97.00
7654;DHT22;3869;48.406;10.774;2022-07-22T10:10:44;26.30;97.50
7654;DHT22;3869;48.406;10.774;2022-07-22T10:13:12;26.30;97.70
7654;DHT22;3869;48.406;10.774;2022-07-22T10:15:40;26.40;97.30
7654;DHT22;3869;48.406;10.774;2022-07-22T10:18:17;26.40;97.00
7654;DHT22;3869;48.406;10.774;2022-07-22T10:20:47;26.50;96.90
7654;DHT22;3869;48.406;10.774;2022-07-22T10:23:15;26.60;96.50
7654;DHT22;3869;48.406;10.774;2022-07-22T10:25:51;26.60;96.10
7654;DHT22;3869;48.406;10.774;2022-07-22T10:28:21;26.70;95.00
7654;DHT22;3869;48.406;10.774;2022-07-22T10:30:49;26.70;94.90
7654;DHT22;3869;48.406;10.774;2022-07-22T10:33:19;26.70;94.20
7654;DHT22;3869;48.406;10.774;2022-07-22T10:35:58;26.70;93.60
7654;DHT22;3869;48.406;10.774;2022-07-22T10:38:27;26.80;93.90
7654;DHT22;3869;48.406;10.774;2022-07-22T10:40:56;26.90;94.10
7654;DHT22;3869;48.406;10.774;2022-07-22T10:43:25;27.00;93.60
7654;DHT22;3869;48.406;10.774;2022-07-22T10:45:55;27.00;94.10
7654;DHT22;3869;48.406;10.774;2022-07-22T10:48:25;27.10;93.90
7654;DHT22;3869;48.406;10.774;2022-07-22T10:51:13;27.20;93.80
7654;DHT22;3869;48.406;10.774;2022-07-22T10:53:44;27.20;92.50
7654;DHT22;3869;48.406;10.774;2022-07-22T10:59:08;27.20;92.10
7654;DHT22;3869;48.406;10.774;2022-07-22T11:01:39;27.30;91.70
7654;DHT22;3869;48.406;10.774;2022-07-22T11:04:15;27.30;92.00
7654;DHT22;3869;48.406;10.774;2022-07-22T11:06:47;27.50;92.50
7654;DHT22;3869;48.406;10.774;2022-07-22T11:09:17;27.60;92.10
7654;DHT22;3869;48.406;10.774;2022-07-22T11:11:47;27.60;91.70
7654;DHT22;3869;48.406;10.774;2022-07-22T11:14:22;27.60;91.90
7654;DHT22;3869;48.406;10.774;2022-07-22T11:16:54;27.70;91.80
7654;DHT22;3869;48.406;10.774;2022-07-22T11:19:24;27.70;91.60
7654;DHT22;3869;48.406;10.774;2022-07-22T11:21:56;27.80;91.90
7654;DHT22;3869;48.406;10.774;2022-07-22T11:24:24;27.80;91.80
7654;DHT22;3869;48.406;10.774;2022-07-22T11:26:54;27.90;91.50
7654;DHT22;3869;48.406;10.774;2022-07-22T11:29:33;28.00;90.50
7654;DHT22;3869;48.406;10.774;2022-07-22T11:32:04;28.00;90.50
7654;DHT22;3869;48.406;10.774;2022-07-22T11:34:33;28.00;90.90
7654;DHT22;3869;48.406;10.774;2022-07-22T11:37:04;28.10;90.30
7654;DHT22;3869;48.406;10.774;2022-07-22T11:39:32;28.20;90.90
7654;DHT22;3869;48.406;10.774;2022-07-22T11:42:00;28.20;89.60
7654;DHT22;3869;48.406;10.774;2022-07-22T11:44:30;28.30;90.60
7654;DHT22;3869;48.406;10.774;2022-07-22T11:46:59;28.40;90.90
7654;DHT22;3869;48.406;10.774;2022-07-22T11:49:29;28.50;90.60
7654;DHT22;3869;48.406;10.774;2022-07-22T11:51:58;28.60;90.70
7654;DHT22;3869;48.406;10.774;2022-07-22T11:54:27;28.70;90.60
7654;DHT22;3869;48.406;10.774;2022-07-22T11:56:55;28.80;90.20
7654;DHT22;3869;48.406;10.774;2022-07-22T11:59:24;28.90;90.60
7654;DHT22;3869;48.406;10.774;2022-07-22T12:01:52;29.00;90.10
7654;DHT22;3869;48.406;10.774;2022-07-22T12:04:22;29.10;89.00
7654;DHT22;3869;48.406;10.774;2022-07-22T12:06:51;29.10;86.90
7654;DHT22;3869;48.406;10.774;2022-07-22T12:09:23;29.10;87.70
7654;DHT22;3869;48.406;10.774;2022-07-22T12:11:54;29.20;89.30
7654;DHT22;3869;48.406;10.774;2022-07-22T12:14:27;29.30;88.50
7654;DHT22;3869;48.406;10.774;2022-07-22T12:16:58;29.40;88.20
7654;DHT22;3869;48.406;10.774;2022-07-22T12:19:27;29.40;86.70
7654;DHT22;3869;48.406;10.774;2022-07-22T12:21:58;29.50;87.40
7654;DHT22;3869;48.406;10.774;2022-07-22T12:24:29;29.60;87.30
7654;DHT22;3869;48.406;10.774;2022-07-22T12:27:00;29.60;85.00
7654;DHT22;3869;48.406;10.774;2022-07-22T12:29:30;29.60;84.50
7654;DHT22;3869;48.406;10.774;2022-07-22T12:32:01;29.60;83.90
7654;DHT22;3869;48.406;10.774;2022-07-22T12:34:31;29.60;84.00
7654;DHT22;3869;48.406;10.774;2022-07-22T12:37:00;29.70;84.30
7654;DHT22;3869;48.406;10.774;2022-07-22T12:39:30;29.70;83.30
7654;DHT22;3869;48.406;10.774;2022-07-22T12:41:59;29.70;82.40
7654;DHT22;3869;48.406;10.774;2022-07-22T12:44:27;29.70;82.90
7654;DHT22;3869;48.406;10.774;2022-07-22T12:47:01;29.80;81.80
7654;DHT22;3869;48.406;10.774;2022-07-22T12:49:28;29.80;83.30
7654;DHT22;3869;48.406;10.774;2022-07-22T12:52:10;29.90;80.60
7654;DHT22;3869;48.406;10.774;2022-07-22T12:54:40;30.00;83.10
7654;DHT22;3869;48.406;10.774;2022-07-22T12:57:09;30.00;82.90
7654;DHT22;3869;48.406;10.774;2022-07-22T12:59:37;30.10;85.20
7654;DHT22;3869;48.406;10.774;2022-07-22T13:02:05;30.10;83.20
7654;DHT22;3869;48.406;10.774;2022-07-22T13:04:33;30.20;81.10
7654;DHT22;3869;48.406;10.774;2022-07-22T13:07:01;30.20;79.70
7654;DHT22;3869;48.406;10.774;2022-07-22T13:09:31;30.20;78.40
7654;DHT22;3869;48.406;10.774;2022-07-22T13:11:59;30.20;78.40
7654;DHT22;3869;48.406;10.774;2022-07-22T13:14:28;30.30;79.60
7654;DHT22;3869;48.406;10.774;2022-07-22T13:17:00;30.40;79.90
7654;DHT22;3869;48.406;10.774;2022-07-22T13:19:29;30.50;79.30
7654;DHT22;3869;48.406;10.774;2022-07-22T13:21:56;30.50;78.80
7654;DHT22;3869;48.406;10.774;2022-07-22T13:24:24;30.50;77.10
7654;DHT22;3869;48.406;10.774;2022-07-22T13:26:52;30.50;73.80
7654;DHT22;3869;48.406;10.774;2022-07-22T13:29:20;30.40;74.70
7654;DHT22;3869;48.406;10.774;2022-07-22T13:31:50;30.30;74.50
7654;DHT22;3869;48.406;10.774;2022-07-22T13:34:38;30.30;73.70
7654;DHT22;3869;48.406;10.774;2022-07-22T13:37:05;30.40;75.20
7654;DHT22;3869;48.406;10.774;2022-07-22T13:39:33;30.40;75.70
7654;DHT22;3869;48.406;10.774;2022-07-22T13:42:01;30.50;74.50
7654;DHT22;3869;48.406;10.774;2022-07-22T13:44:29;30.50;73.70
7654;DHT22;3869;48.406;10.774;2022-07-22T13:46:59;30.60;73.40
7654;DHT22;3869;48.406;10.774;2022-07-22T13:49:27;30.70;72.90
7654;DHT22;3869;48.406;10.774;2022-07-22T13:51:58;30.80;72.00
7654;DHT22;3869;48.406;10.774;2022-07-22T13:54:28;30.80;73.40
7654;DHT22;3869;48.406;10.774;2022-07-22T13:56:57;30.80;72.60
7654;DHT22;3869;48.406;10.774;2022-07-22T13:59:26;30.80;71.80
7654;DHT22;3869;48.406;10.774;2022-07-22T14:01:56;30.80;72.00
7654;DHT22;3869;48.406;10.774;2022-07-22T14:04:27;30.80;68.40
7654;DHT22;3869;48.406;10.774;2022-07-22T14:06:55;30.80;69.90
7654;DHT22;3869;48.406;10.774;2022-07-22T14:09:23;30.90;69.30
7654;DHT22;3869;48.406;10.774;2022-07-22T14:12:07;30.90;70.40
7654;DHT22;3869;48.406;10.774;2022-07-22T14:14:35;31.00;72.20
7654;DHT22;3869;48.406;10.774;2022-07-22T14:17:03;31.00;72.60
7654;DHT22;3869;48.406;10.774;2022-07-22T14:19:33;31.10;74.00
7654;DHT22;3869;48.406;10.774;2022-07-22T14:22:01;31.10;73.20
7654;DHT22;3869;48.406;10.774;2022-07-22T14:24:29;31.10;72.20
7654;DHT22;3869;48.406;10.774;2022-07-22T14:26:56;31.10;70.70
7654;DHT22;3869;48.406;10.774;2022-07-22T14:29:25;31.10;71.10
7654;DHT22;3869;48.406;10.774;2022-07-22T14:31:53;31.10;69.00
7654;DHT22;3869;48.406;10.774;2022-07-22T14:34:21;31.00;67.30
7654;DHT22;3869;48.406;10.774;2022-07-22T14:36:50;31.00;69.50
7654;DHT22;3869;48.406;10.774;2022-07-22T14:39:18;31.00;69.60
7654;DHT22;3869;48.406;10.774;2022-07-22T14:41:46;31.00;69.10
7654;DHT22;3869;48.406;10.774;2022-07-22T14:44:14;31.00;68.80
7654;DHT22;3869;48.406;10.774;2022-07-22T14:46:42;31.00;68.20
7654;DHT22;3869;48.406;10.774;2022-07-22T14:49:10;31.00;67.60
7654;DHT22;3869;48.406;10.774;2022-07-22T14:51:41;30.90;67.70
7654;DHT22;3869;48.406;10.774;2022-07-22T14:54:10;30.90;66.50
7654;DHT22;3869;48.406;10.774;2022-07-22T14:56:39;30.90;66.00
7654;DHT22;3869;48.406;10.774;2022-07-22T14:59:07;30.80;65.20
7654;DHT22;3869;48.406;10.774;2022-07-22T15:01:35;30.80;66.20
7654;DHT22;3869;48.406;10.774;2022-07-22T15:04:03;30.80;67.70
7654;DHT22;3869;48.406;10.774;2022-07-22T15:06:33;30.80;66.90
7654;DHT22;3869;48.406;10.774;2022-07-22T15:09:01;30.80;67.40
7654;DHT22;3869;48.406;10.774;2022-07-22T15:11:30;30.80;68.60
7654;DHT22;3869;48.406;10.774;2022-07-22T15:13:58;30.80;69.00
7654;DHT22;3869;48.406;10.774;2022-07-22T15:16:27;30.80;68.70
7654;DHT22;3869;48.406;10.774;2022-07-22T15:18:55;30.70;67.80
7654;DHT22;3869;48.406;10.774;2022-07-22T15:21:23;30.70;66.20
7654;DHT22;3869;48.406;10.774;2022-07-22T15:23:57;30.70;66.70
7654;DHT22;3869;48.406;10.774;2022-07-22T15:26:27;30.70;66.70
7654;DHT22;3869;48.406;10.774;2022-07-22T15:28:56;30.60;66.60
7654;DHT22;3869;48.406;10.774;2022-07-22T15:31:25;30.60;66.60
7654;DHT22;3869;48.406;10.774;2022-07-22T15:33:55;30.60;65.50
7654;DHT22;3869;48.406;10.774;2022-07-22T15:36:23;30.60;66.00
7654;DHT22;3869;48.406;10.774;2022-07-22T15:38:53;30.60;66.60
7654;DHT22;3869;48.406;10.774;2022-07-22T15:41:26;30.60;67.40
7654;DHT22;3869;48.406;10.774;2022-07-22T15:43:56;30.60;68.10
7654;DHT22;3869;48.406;10.774;2022-07-22T15:46:24;30.60;66.80
7654;DHT22;3869;48.406;10.774;2022-07-22T15:48:52;30.60;66.80
7654;DHT22;3869;48.406;10.774;2022-07-22T15:51:20;30.50;66.30
7654;DHT22;3869;48.406;10.774;2022-07-22T15:53:48;30.50;66.50
7654;DHT22;3869;48.406;10.774;2022-07-22T15:56:16;30.50;66.20
7654;DHT22;3869;48.406;10.774;2022-07-22T15:58:45;30.50;66.90
7654;DHT22;3869;48.406;10.774;2022-07-22T16:01:52;30.50;66.20